createdAt,value
2023-01-12T00:37:37.184Z,101689.95
2023-01-12T00:40:05.235Z,101685.30
2023-01-12T00:42:51.335Z,101682.73
2023-01-12T00:45:25.072Z,101684.88
2023-01-12T00:47:53.531Z,101680.10
2023-01-12T00:50:20.668Z,101681.41
2023-01-12T00:52:47.748Z,101680.42
2023-01-12T00:55:15.288Z,101675.61
2023-01-12T00:57:43.679Z,101679.93
2023-01-12T01:00:11.711Z,101676.77
2023-01-12T01:02:38.909Z,101683.56
2023-01-12T01:05:06.471Z,101677.16
2023-01-12T01:07:33.506Z,101673.76
2023-01-12T01:10:00.551Z,101678.14
2023-01-12T01:12:27.732Z,101676.77
2023-01-12T01:14:54.754Z,101678.95
2023-01-12T01:17:21.815Z,101679.73
2023-01-12T01:19:48.859Z,101678.41
2023-01-12T01:22:15.870Z,101685.92
2023-01-12T01:24:43.161Z,101690.77
2023-01-12T01:27:10.505Z,101689.73
2023-01-12T01:29:37.560Z,101687.80
2023-01-12T01:32:05.006Z,101689.11
2023-01-12T01:34:32.345Z,101690.39
2023-01-12T01:36:59.517Z,101697.67
2023-01-12T01:39:26.588Z,101699.31
2023-01-12T01:41:54.967Z,101703.40
2023-01-12T01:44:31.438Z,101701.04
2023-01-12T01:47:07.239Z,101706.40
2023-01-12T01:49:46.210Z,101707.48
2023-01-12T01:52:29.330Z,101704.52
2023-01-12T01:55:04.467Z,101707.43
2023-01-12T01:57:34.182Z,101704.16
2023-01-12T02:00:02.361Z,101706.85
2023-01-12T02:02:32.423Z,101709.70
2023-01-12T02:04:59.531Z,101706.09
2023-01-12T02:07:26.690Z,101706.16
2023-01-12T02:09:53.834Z,101702.26
2023-01-12T02:12:39.534Z,101699.33
2023-01-12T02:15:25.822Z,101703.56
2023-01-12T02:17:55.741Z,101707.34
2023-01-12T02:20:41.646Z,101709.13
2023-01-12T02:23:32.039Z,101705.66
2023-01-12T02:26:37.168Z,101702.79
2023-01-12T02:29:30.536Z,101700.16
2023-01-12T02:32:11.523Z,101698.23
2023-01-12T02:35:01.932Z,101685.65
2023-01-12T02:37:51.207Z,101688.44
2023-01-12T02:40:31.139Z,101684.80
2023-01-12T02:43:07.095Z,101689.79
2023-01-12T02:45:43.183Z,101694.11
2023-01-12T02:48:26.086Z,101685.44
2023-01-12T02:51:17.626Z,101680.83
2023-01-12T02:53:52.943Z,101682.92
2023-01-12T02:56:24.096Z,101682.21
2023-01-12T02:58:54.577Z,101678.09
2023-01-12T03:01:21.878Z,101669.90
2023-01-12T03:03:49.422Z,101667.64
2023-01-12T03:06:17.647Z,101665.67
2023-01-12T03:08:45.177Z,101670.27
2023-01-12T03:11:18.673Z,101666.52
2023-01-12T03:13:52.701Z,101663.70
2023-01-12T03:16:22.003Z,101664.75
2023-01-12T03:18:59.897Z,101661.75
2023-01-12T03:21:39.143Z,101663.09
2023-01-12T03:24:10.480Z,101660.50
2023-01-12T03:26:39.883Z,101651.88
2023-01-12T03:29:21.371Z,101647.44
2023-01-12T03:31:48.439Z,101646.59
2023-01-12T03:34:15.471Z,101644.55
2023-01-12T03:36:53.788Z,101642.16
2023-01-12T03:39:30.050Z,101636.97
2023-01-12T03:42:00.184Z,101636.45
2023-01-12T03:44:40.239Z,101638.63
2023-01-12T03:47:12.295Z,101630.95
2023-01-12T03:49:46.123Z,101631.04
2023-01-12T03:52:13.259Z,101629.23
2023-01-12T03:54:40.308Z,101629.14
2023-01-12T03:57:07.767Z,101626.97
2023-01-12T03:59:35.223Z,101627.23
2023-01-12T04:02:03.305Z,101625.65
2023-01-12T04:04:30.298Z,101626.50
2023-01-12T04:06:57.419Z,101625.04
2023-01-12T04:09:26.090Z,101631.66
2023-01-12T04:12:11.464Z,101633.81
2023-01-12T04:14:43.057Z,101627.15
2023-01-12T04:17:11.916Z,101625.54
2023-01-12T04:19:38.982Z,101625.27
2023-01-12T04:22:25.165Z,101621.86
2023-01-12T04:24:57.483Z,101614.70
2023-01-12T04:27:24.484Z,101609.60
2023-01-12T04:29:51.738Z,101605.39
2023-01-12T04:32:18.799Z,101595.94
2023-01-12T04:34:46.553Z,101591.10
2023-01-12T04:37:13.727Z,101589.54
2023-01-12T04:39:40.767Z,101584.84
2023-01-12T04:42:27.776Z,101580.63
2023-01-12T04:44:54.795Z,101580.39
2023-01-12T04:47:21.803Z,101578.42
2023-01-12T04:49:48.788Z,101577.75
2023-01-12T04:52:15.881Z,101579.02
2023-01-12T04:54:42.921Z,101581.29
2023-01-12T04:57:09.894Z,101576.90
2023-01-12T04:59:36.879Z,101574.68
2023-01-12T05:02:03.985Z,101583.38
2023-01-12T05:04:31.065Z,101585.09
2023-01-12T05:06:58.166Z,101585.15
2023-01-12T05:09:44.057Z,101580.49
2023-01-12T05:12:11.313Z,101578.04
2023-01-12T05:14:38.368Z,101575.15
2023-01-12T05:17:05.434Z,101580.94
2023-01-12T05:19:32.378Z,101582.13
2023-01-12T05:21:59.519Z,101585.81
2023-01-12T05:24:26.663Z,101588.14
2023-01-12T05:26:53.718Z,101586.10
2023-01-12T05:29:20.760Z,101588.44
2023-01-12T05:31:47.929Z,101586.46
2023-01-12T05:34:15.173Z,101586.22
2023-01-12T05:36:42.218Z,101582.23
2023-01-12T05:39:09.267Z,101579.61
2023-01-12T05:41:36.218Z,101578.27
2023-01-12T05:44:03.364Z,101576.76
2023-01-12T05:46:31.464Z,101578.08
2023-01-12T05:48:58.714Z,101580.83
2023-01-12T05:51:26.551Z,101583.83
2023-01-12T05:53:54.352Z,101585.27
2023-01-12T05:56:28.949Z,101579.23
2023-01-12T05:58:59.575Z,101578.19
2023-01-12T06:01:27.254Z,101582.80
2023-01-12T06:03:57.065Z,101583.06
2023-01-12T06:06:26.064Z,101583.88
2023-01-12T12:45:18.005Z,101438.48
2023-01-12T12:48:12.564Z,101432.40
2023-01-12T12:50:41.039Z,101429.25
2023-01-12T12:53:12.865Z,101424.93
2023-01-12T12:55:39.871Z,101428.14
2023-01-12T12:58:31.112Z,101426.88
2023-01-12T13:01:18.171Z,101426.91
2023-01-12T13:03:55.056Z,101428.87
2023-01-12T13:06:32.045Z,101430.52
2023-01-12T13:08:59.672Z,101431.31
2023-01-12T13:11:48.752Z,101429.65
2023-01-12T13:14:19.340Z,101430.27
2023-01-12T13:16:51.836Z,101430.59
2023-01-12T13:19:41.266Z,101432.56
2023-01-12T13:22:47.435Z,101439.90
2023-01-12T13:25:19.611Z,101439.75
2023-01-12T13:28:01.800Z,101438.15
2023-01-12T13:30:28.767Z,101435.30
2023-01-12T13:32:55.741Z,101431.29
2023-01-12T13:35:49.105Z,101435.48
2023-01-12T13:38:19.961Z,101436.02
2023-01-12T13:40:56.002Z,101443.11
2023-01-12T13:43:29.429Z,101445.75
2023-01-12T13:46:19.786Z,101447.90
2023-01-12T13:48:49.151Z,101448.86
2023-01-12T13:51:39.164Z,101448.53
2023-01-12T13:54:16.096Z,101449.52
2023-01-12T13:56:43.316Z,101454.50
2023-01-12T13:59:18.015Z,101454.50
2023-01-12T14:01:46.390Z,101459.86
2023-01-12T14:04:19.940Z,101461.40
2023-01-12T18:04:46.983Z,101428.56
2023-01-12T18:07:14.088Z,101429.16
2023-01-12T18:09:42.253Z,101426.22
2023-01-12T18:12:10.947Z,101425.31
2023-01-12T18:28:01.190Z,101418.46
2023-01-12T18:30:28.249Z,101423.48
2023-01-12T18:32:55.201Z,101416.70
2023-01-12T18:35:22.556Z,101417.98
2023-01-12T18:37:49.648Z,101418.00
2023-01-12T18:40:16.714Z,101417.13
2023-01-12T18:42:54.689Z,101419.44
2023-01-12T18:45:22.431Z,101415.99
2023-01-12T18:48:08.146Z,101420.58
2023-01-12T18:50:53.786Z,101416.77
2023-01-12T18:53:23.572Z,101415.05
2023-01-12T18:55:55.370Z,101416.09
2023-01-12T18:58:27.797Z,101413.33
2023-01-12T19:00:57.702Z,101416.98
2023-01-12T19:03:24.844Z,101415.48
2023-01-12T19:05:54.778Z,101419.21
2023-01-12T19:08:40.568Z,101416.29
2023-01-12T19:11:11.578Z,101416.13
2023-01-12T19:13:57.625Z,101409.80
2023-01-12T19:16:43.294Z,101407.09
2023-01-12T19:19:11.245Z,101405.23
2023-01-12T19:22:16.711Z,101409.66
2023-01-12T19:25:02.377Z,101403.17
2023-01-12T19:27:48.315Z,101397.95
2023-01-12T19:30:15.915Z,101398.08
2023-01-12T19:32:44.220Z,101400.52
2023-01-12T19:35:11.930Z,101405.07
2023-01-12T19:37:40.500Z,101407.83
2023-01-12T19:40:18.839Z,101410.33
2023-01-12T19:43:04.535Z,101415.63
2023-01-12T19:45:31.592Z,101416.44
2023-01-12T19:47:58.727Z,101419.30
2023-01-12T19:50:25.727Z,101421.67
2023-01-12T19:52:52.685Z,101421.41
2023-01-12T19:55:19.933Z,101423.09
2023-01-12T19:57:47.016Z,101417.98
2023-01-12T20:00:15.371Z,101412.31
2023-01-12T20:02:45.780Z,101411.36
2023-01-12T20:05:13.776Z,101407.51
2023-01-12T20:07:57.520Z,101409.66
2023-01-12T20:10:25.245Z,101411.32
2023-01-12T20:12:53.120Z,101415.08
2023-01-12T20:15:21.200Z,101417.80
2023-01-12T20:17:48.983Z,101420.26
2023-01-12T20:20:16.408Z,101423.04
2023-01-12T20:22:46.047Z,101414.83
2023-01-12T20:25:15.324Z,101408.46
2023-01-12T20:27:42.942Z,101412.34
2023-01-12T20:30:10.984Z,101413.04
2023-01-12T20:32:42.007Z,101420.58
2023-01-12T20:35:10.097Z,101425.73
2023-01-12T20:37:37.449Z,101426.48
2023-01-12T20:40:05.103Z,101430.29
2023-01-12T20:42:32.467Z,101426.03
2023-01-12T20:45:00.192Z,101421.48
2023-01-12T20:47:28.357Z,101422.77
2023-01-12T20:49:55.798Z,101421.05
2023-01-12T20:52:23.672Z,101427.64
2023-01-12T20:54:50.836Z,101428.30
2023-01-12T20:57:17.869Z,101423.30
2023-01-12T20:59:44.991Z,101420.38
2023-01-12T21:02:25.432Z,101417.70
2023-01-12T21:04:52.586Z,101416.77
2023-01-12T21:07:21.702Z,101416.09
2023-01-12T21:09:48.950Z,101413.60
2023-01-12T21:12:16.479Z,101414.08
2023-01-12T21:14:43.557Z,101411.39
2023-01-12T21:17:10.622Z,101411.23
2023-01-12T21:19:37.648Z,101407.07
2023-01-12T21:22:04.698Z,101412.06
2023-01-12T21:24:32.590Z,101420.17
2023-01-12T21:26:59.621Z,101420.11
2023-01-12T21:29:26.676Z,101416.54
2023-01-12T21:31:53.826Z,101421.39
2023-01-12T21:34:20.958Z,101419.59
2023-01-12T21:36:49.135Z,101421.93
2023-01-12T21:39:16.379Z,101421.79
2023-01-12T21:42:02.077Z,101423.48
2023-01-12T21:44:29.207Z,101425.70
2023-01-12T21:46:56.193Z,101429.36
2023-01-12T21:49:23.331Z,101423.78
2023-01-12T21:51:50.446Z,101422.58
2023-01-12T21:54:17.541Z,101415.77
2023-01-12T21:56:44.554Z,101412.69
2023-01-12T21:59:12.642Z,101408.14
2023-01-12T22:01:40.410Z,101403.34
2023-01-12T22:04:07.642Z,101401.73
2023-01-12T22:06:34.778Z,101406.35
2023-01-12T22:09:01.810Z,101402.68
2023-01-12T22:11:28.770Z,101402.10
2023-01-12T22:13:55.775Z,101404.73
2023-01-12T22:16:22.837Z,101399.77
2023-01-12T22:18:50.132Z,101395.11
2023-01-12T22:21:18.741Z,101390.99
2023-01-12T22:23:45.983Z,101394.35
2023-01-12T22:26:13.910Z,101391.09
2023-01-12T22:28:42.201Z,101389.39
2023-01-12T22:31:13.875Z,101388.27
2023-01-12T22:33:44.342Z,101388.34
2023-01-12T22:36:11.482Z,101384.37
2023-01-12T22:38:38.530Z,101384.20
2023-01-12T22:41:09.852Z,101380.62
2023-01-12T22:43:43.145Z,101380.85
2023-01-12T22:46:26.053Z,101379.73
2023-01-12T22:48:57.472Z,101381.48
2023-01-12T22:51:25.893Z,101380.92
2023-01-12T22:53:53.953Z,101381.50
2023-01-12T22:56:21.338Z,101380.88
2023-01-12T22:58:49.446Z,101381.78
2023-01-12T23:01:17.043Z,101384.50
2023-01-12T23:03:44.317Z,101379.63
2023-01-12T23:06:12.694Z,101378.20
2023-01-12T23:08:40.431Z,101377.11
2023-01-12T23:11:19.180Z,101372.05
2023-01-12T23:13:46.678Z,101374.68
2023-01-12T23:16:15.604Z,101374.54
2023-01-12T23:18:43.413Z,101379.35
2023-01-12T23:21:14.332Z,101380.05
2023-01-12T23:23:46.292Z,101382.92
2023-01-12T23:26:14.929Z,101378.95
2023-01-12T23:28:46.412Z,101375.14
2023-01-12T23:31:15.361Z,101370.67
2023-01-12T23:33:45.310Z,101367.30
2023-01-12T23:36:20.818Z,101368.76
2023-01-12T23:38:47.984Z,101364.69
2023-01-12T23:41:19.662Z,101362.19
2023-01-12T23:43:47.953Z,101358.80
2023-01-12T23:46:17.319Z,101353.94
2023-01-12T23:48:44.343Z,101350.20
2023-01-12T23:51:11.422Z,101351.58
2023-01-12T23:53:38.507Z,101351.35
2023-01-12T23:56:09.424Z,101353.97
2023-01-12T23:58:36.875Z,101352.70
